Time;durP1;ratioP1;P1;durP2;ratioP2;P2;SDS_P1;SDS_P2;PMS_P1;PMS_P2;Temp;Humidity;BMP_temperature;BMP_pressure;BME280_temperature;BME280_humidity;BME280_pressure;Samples;Min_cycle;Max_cycle;Signal;HPM_P1;HPM_P2
2023/03/22 00:02:04;;;;;;;2.53;2.33;;;12.90;61.60;12.80;96268.00;;;;5073893;28;20759;-81
2023/03/22 00:04:32;;;;;;;2.40;2.20;;;12.80;61.60;12.80;96263.00;;;;5060616;28;20227;-79
2023/03/22 00:06:59;;;;;;;2.60;2.37;;;12.80;61.70;12.80;96263.00;;;;5054982;28;20216;-80
2023/03/22 00:09:27;;;;;;;2.70;2.50;;;12.80;61.80;12.80;96260.00;;;;5058776;28;20754;-80
2023/03/22 00:11:55;;;;;;;9.23;2.83;;;12.70;61.90;12.80;96256.00;;;;5064422;28;20743;-80
2023/03/22 00:14:23;;;;;;;2.97;2.73;;;12.70;62.10;12.70;96251.00;;;;5062857;28;20220;-80
2023/03/22 00:16:51;;;;;;;3.60;3.07;;;12.70;62.20;12.70;96255.00;;;;5065089;28;20250;-80
2023/03/22 00:19:18;;;;;;;3.53;3.23;;;12.70;62.30;12.70;96252.00;;;;5062498;28;20284;-79
2023/03/22 00:21:45;;;;;;;3.40;3.10;;;12.60;62.40;12.70;96252.00;;;;5064357;28;20200;-79
2023/03/22 00:24:13;;;;;;;3.30;3.00;;;12.60;62.50;12.70;96249.00;;;;5073837;28;20312;-80
2023/03/22 00:26:40;;;;;;;3.33;2.87;;;12.60;62.80;12.70;96248.00;;;;5074512;28;20198;-79
2023/03/22 00:29:07;;;;;;;2.97;2.77;;;12.60;62.90;12.70;96252.00;;;;5057349;28;20212;-80
2023/03/22 00:31:36;;;;;;;3.03;2.60;;;12.60;63.20;12.70;96246.00;;;;5058343;28;20227;-79
2023/03/22 00:34:04;;;;;;;3.30;2.97;;;12.60;63.50;12.70;96248.00;;;;5055185;28;20224;-80
2023/03/22 00:36:31;;;;;;;2.70;2.40;;;12.60;63.50;12.70;96247.00;;;;5060755;28;20267;-79
2023/03/22 00:39:00;;;;;;;2.77;2.43;;;12.60;63.50;12.80;96238.00;;;;5073767;28;20410;-80
2023/03/22 00:41:27;;;;;;;2.37;2.17;;;12.60;63.70;12.80;96246.00;;;;5068298;28;20727;-79
2023/03/22 00:43:54;;;;;;;2.70;2.50;;;12.60;63.70;12.80;96245.00;;;;5061748;28;20311;-79
2023/03/22 00:46:22;;;;;;;3.10;2.77;;;12.70;63.80;12.90;96244.00;;;;5074513;28;20551;-79
2023/03/22 00:48:51;;;;;;;2.60;2.40;;;12.70;63.80;12.90;96233.00;;;;5065419;28;20230;-79
2023/03/22 00:51:19;;;;;;;2.70;2.43;;;12.70;64.00;12.90;96233.00;;;;5056717;28;20215;-79
2023/03/22 00:53:48;;;;;;;2.40;2.20;;;12.70;63.90;12.90;96222.00;;;;5054703;28;20291;-79
2023/03/22 00:56:15;;;;;;;3.73;2.60;;;12.80;64.10;13.00;96231.00;;;;5051831;28;20193;-80
2023/03/22 00:58:43;;;;;;;2.60;2.40;;;12.80;64.10;13.00;96219.00;;;;5054606;28;20311;-80
2023/03/22 01:01:12;;;;;;;2.60;2.40;;;12.80;64.10;13.00;96227.00;;;;5057281;28;20300;-80
2023/03/22 01:03:40;;;;;;;2.93;2.70;;;12.80;64.20;13.10;96221.00;;;;5068061;28;20216;-80
2023/03/22 01:06:11;;;;;;;2.60;2.40;;;12.90;64.30;13.10;96228.00;;;;5055533;28;20220;-80
2023/03/22 01:08:38;;;;;;;2.97;2.67;;;12.90;64.50;13.10;96227.00;;;;5065243;28;20648;-79
2023/03/22 01:11:07;;;;;;;3.10;2.80;;;12.90;64.30;13.10;96219.00;;;;5057955;28;20207;-80
2023/03/22 01:13:37;;;;;;;2.63;2.43;;;12.90;64.20;13.20;96219.00;;;;5046590;28;20235;-80
2023/03/22 01:16:05;;;;;;;2.50;2.30;;;13.00;64.30;13.20;96212.00;;;;5054516;28;20589;-80
2023/03/22 01:18:33;;;;;;;2.90;2.70;;;13.00;64.30;13.20;96215.00;;;;5054935;28;20789;-80
2023/03/22 01:21:04;;;;;;;3.83;2.50;;;13.00;64.30;13.20;96221.00;;;;5057916;28;20685;-79
2023/03/22 01:23:33;;;;;;;2.57;2.37;;;13.10;64.40;13.20;96215.00;;;;5071985;28;20312;-80
2023/03/22 01:26:01;;;;;;;2.60;2.40;;;13.10;64.40;13.30;96229.00;;;;5082721;28;20199;-79
2023/03/22 01:28:28;;;;;;;2.87;2.40;;;13.10;65.10;13.30;96231.00;;;;5082190;28;20203;-80
2023/03/22 01:30:56;;;;;;;2.63;2.43;;;13.10;64.40;13.30;96230.00;;;;5074247;28;20200;-79
2023/03/22 01:33:24;;;;;;;2.50;2.30;;;13.10;64.30;13.30;96227.00;;;;5041683;28;20699;-80
2023/03/22 01:35:51;;;;;;;3.10;2.73;;;13.10;64.40;13.40;96218.00;;;;5054848;28;20191;-80
2023/03/22 01:38:21;;;;;;;3.10;2.80;;;13.20;64.50;13.40;96211.00;;;;5054405;28;20195;-80
2023/03/22 01:40:50;;;;;;;4.67;3.10;;;13.20;65.30;13.40;96216.00;;;;5052850;28;20294;-79
2023/03/22 01:43:19;;;;;;;4.20;2.90;;;13.20;64.60;13.40;96202.00;;;;5059836;28;20748;-81
2023/03/22 01:45:49;;;;;;;3.77;3.00;;;13.20;64.50;13.50;96209.00;;;;5064674;28;20199;-79
2023/03/22 01:48:28;;;;;;;2.93;2.73;;;13.30;64.50;13.50;96200.00;;;;5072768;28;20204;-81
2023/03/22 01:51:05;;;;;;;4.20;3.33;;;13.30;64.70;13.60;96207.00;;;;5054393;28;20218;-79
2023/03/22 01:53:39;;;;;;;3.33;3.10;;;13.40;64.60;13.60;96198.00;;;;5055998;28;21714;-80
2023/03/22 01:56:11;;;;;;;3.23;3.00;;;13.40;64.50;13.60;96196.00;;;;5056085;28;20192;-80
2023/03/22 01:58:41;;;;;;;3.53;3.20;;;13.40;64.50;13.60;96202.00;;;;5059678;28;20283;-80
2023/03/22 02:01:11;;;;;;;3.03;2.80;;;13.40;64.40;13.60;96198.00;;;;5056813;28;20197;-80
2023/03/22 02:03:51;;;;;;;3.27;2.93;;;13.40;64.40;13.70;96203.00;;;;5068919;28;20224;-80
2023/03/22 02:06:20;;;;;;;2.97;2.67;;;13.50;64.70;13.70;96192.00;;;;5056257;28;20692;-79
2023/03/22 02:08:48;;;;;;;3.37;3.07;;;13.50;64.50;13.70;96191.00;;;;5073009;28;20244;-80
2023/03/22 02:11:25;;;;;;;3.30;3.00;;;13.50;64.60;13.80;96196.00;;;;5056003;28;20193;-80
2023/03/22 02:14:33;;;;;;;4.97;3.47;;;13.60;64.50;13.80;96188.00;;;;5075019;28;20204;-80
2023/03/22 02:17:28;;;;;;;3.07;2.87;;;13.60;64.60;13.80;96194.00;;;;5069561;28;20286;-80
2023/03/22 02:20:40;;;;;;;3.10;2.90;;;13.60;64.50;13.90;96186.00;;;;5067647;28;20216;-80
2023/03/22 02:24:01;;;;;;;3.00;2.80;;;13.70;64.50;13.90;96184.00;;;;5057234;28;20226;-80
2023/03/22 02:27:14;;;;;;;3.53;3.23;;;13.70;64.40;13.90;96185.00;;;;5059386;28;20207;-78
2023/03/22 02:29:47;;;;;;;3.40;3.10;;;13.70;64.40;13.90;96189.00;;;;5077240;28;20222;-80
2023/03/22 02:32:46;;;;;;;3.40;3.10;;;13.70;64.00;14.00;96199.00;;;;5089141;28;20680;-80
2023/03/22 02:35:53;;;;;;;3.30;3.00;;;13.80;64.20;14.00;96201.00;;;;5056737;28;20284;-79
2023/03/22 02:39:05;;;;;;;3.20;2.80;;;13.80;64.10;14.00;96194.00;;;;5064285;28;20572;-79
2023/03/22 02:41:52;;;;;;;4.13;2.87;;;13.80;64.10;14.00;96192.00;;;;5073638;28;20227;-79
2023/03/22 02:44:29;;;;;;;4.13;3.23;;;13.80;64.00;14.00;96198.00;;;;5063744;28;20225;-80
2023/03/22 02:47:04;;;;;;;3.30;3.00;;;13.80;64.00;14.00;96183.00;;;;5069091;28;20250;-79
2023/03/22 02:49:37;;;;;;;4.93;3.43;;;13.90;64.10;14.10;96184.00;;;;5076440;28;20282;-80
2023/03/22 02:52:16;;;;;;;2.67;2.50;;;13.90;64.00;14.10;96193.00;;;;5068113;28;20640;-79
2023/03/22 02:54:55;;;;;;;2.70;2.50;;;13.90;63.90;14.00;96191.00;;;;5069712;28;20196;-80
2023/03/22 02:57:33;;;;;;;3.30;3.00;;;13.90;63.80;14.10;96194.00;;;;5070645;28;20609;-79
2023/03/22 03:00:07;;;;;;;3.50;3.20;;;13.90;63.80;14.10;96192.00;;;;5045103;28;20217;-80
2023/03/22 03:02:35;;;;;;;3.80;3.50;;;13.90;63.80;14.10;96190.00;;;;5043541;28;20224;-80
2023/03/22 03:05:05;;;;;;;3.30;3.00;;;13.90;63.70;14.10;96186.00;;;;5068539;28;20300;-79
2023/03/22 03:07:33;;;;;;;3.50;3.20;;;13.90;63.60;14.10;96199.00;;;;5072598;28;20217;-80
2023/03/22 03:10:04;;;;;;;4.17;3.60;;;13.90;63.70;14.10;96192.00;;;;5070816;28;20723;-80
2023/03/22 03:12:31;;;;;;;3.93;2.87;;;13.90;63.70;14.10;96195.00;;;;5070797;28;20250;-80
2023/03/22 03:14:59;;;;;;;4.17;3.77;;;13.90;63.60;14.10;96195.00;;;;5066376;28;20731;-80
2023/03/22 03:17:51;;;;;;;3.57;3.27;;;13.90;63.50;14.10;96189.00;;;;5069858;28;20696;-79
2023/03/22 03:20:33;;;;;;;3.40;3.10;;;13.90;63.80;14.10;96192.00;;;;5054382;28;20224;-79
2023/03/22 03:23:15;;;;;;;3.63;3.33;;;13.90;63.70;14.10;96188.00;;;;5063761;28;20241;-79
2023/03/22 03:25:56;;;;;;;3.60;3.30;;;13.90;63.60;14.10;96183.00;;;;5057872;28;20243;-80
2023/03/22 03:28:37;;;;;;;3.47;3.17;;;13.90;63.60;14.10;96192.00;;;;5065749;28;20571;-80
2023/03/22 03:31:16;;;;;;;3.20;3.00;;;13.90;63.50;14.10;96190.00;;;;5060782;28;20188;-80
2023/03/22 03:33:54;;;;;;;3.63;3.33;;;13.90;64.10;14.10;96193.00;;;;5060069;28;20637;-81
2023/03/22 03:36:25;;;;;;;3.43;3.13;;;13.90;63.50;14.10;96195.00;;;;5072252;28;20230;-80
2023/03/22 03:38:56;;;;;;;3.90;3.60;;;13.90;63.50;14.10;96192.00;;;;5070721;28;20227;-80
2023/03/22 03:41:28;;;;;;;3.30;3.07;;;13.90;63.50;14.10;96194.00;;;;5053846;28;20196;-80
2023/03/22 03:43:58;;;;;;;4.00;3.30;;;13.90;63.70;14.10;96187.00;;;;5061829;28;20216;-79
2023/03/22 03:46:26;;;;;;;3.67;3.27;;;13.90;63.60;14.10;96182.00;;;;5074108;28;20196;-81
2023/03/22 03:48:58;;;;;;;3.40;3.10;;;13.90;63.70;14.10;96181.00;;;;5055876;28;20221;-79
2023/03/22 03:51:27;;;;;;;3.43;3.13;;;13.90;63.70;14.10;96178.00;;;;5055501;28;20204;-79
2023/03/22 03:53:55;;;;;;;3.10;2.90;;;13.90;63.70;14.10;96181.00;;;;5063532;28;20204;-80
2023/03/22 03:56:24;;;;;;;4.70;3.50;;;13.90;63.60;14.10;96193.00;;;;5079050;28;20210;-80
2023/03/22 03:58:52;;;;;;;6.23;3.70;;;13.90;63.70;14.10;96195.00;;;;5075470;28;20707;-80
2023/03/22 04:01:20;;;;;;;4.37;3.07;;;13.90;63.80;14.10;96195.00;;;;5086807;28;20187;-80
2023/03/22 04:03:49;;;;;;;3.30;3.00;;;14.00;63.80;14.10;96198.00;;;;5068440;28;20323;-80
2023/03/22 04:06:17;;;;;;;3.30;3.10;;;14.00;63.70;14.10;96196.00;;;;5064106;28;20200;-80
2023/03/22 04:08:44;;;;;;;3.67;3.20;;;14.00;63.50;14.10;96192.00;;;;5074158;28;20200;-80
2023/03/22 04:11:12;;;;;;;3.50;3.20;;;14.00;63.50;14.10;96182.00;;;;5061688;28;20197;-79
2023/03/22 04:13:41;;;;;;;3.63;3.33;;;13.90;63.30;14.00;96181.00;;;;5071943;28;20249;-79
2023/03/22 04:16:09;;;;;;;3.23;3.03;;;13.90;63.30;14.00;96182.00;;;;5063678;28;20280;-79
2023/03/22 04:18:37;;;;;;;3.17;2.90;;;13.90;63.20;14.00;96182.00;;;;5071791;28;20192;-81
2023/03/22 04:21:06;;;;;;;3.60;3.30;;;13.90;63.10;13.90;96181.00;;;;5072532;28;20200;-80
2023/03/22 04:23:33;;;;;;;3.67;3.37;;;13.80;63.10;13.90;96181.00;;;;5069962;28;20200;-80
2023/03/22 04:26:01;;;;;;;3.40;3.10;;;13.80;63.10;13.80;96187.00;;;;5060162;28;20300;-80
2023/03/22 04:28:32;;;;;;;3.57;3.27;;;13.80;63.10;13.80;96185.00;;;;5068623;28;20192;-80
2023/03/22 04:31:02;;;;;;;4.00;3.17;;;13.70;63.00;13.70;96191.00;;;;5052278;28;20680;-80
2023/03/22 04:33:31;;;;;;;3.40;3.20;;;13.70;63.00;13.70;96181.00;;;;5064882;28;20204;-81
2023/03/22 04:35:59;;;;;;;4.33;3.93;;;13.60;63.00;13.60;96182.00;;;;5071782;28;20204;-80
2023/03/22 04:38:26;;;;;;;4.30;3.77;;;13.60;63.00;13.60;96176.00;;;;5070997;28;20752;-81
2023/03/22 04:40:54;;;;;;;4.17;3.10;;;13.60;63.10;13.50;96179.00;;;;5065427;28;20215;-81
2023/03/22 04:43:21;;;;;;;3.83;3.53;;;13.50;63.00;13.50;96171.00;;;;5069341;28;20593;-79
2023/03/22 04:45:48;;;;;;;3.37;3.17;;;13.40;62.90;13.40;96168.00;;;;5072040;28;20231;-79
2023/03/22 04:48:20;;;;;;;3.60;3.30;;;13.40;63.00;13.30;96172.00;;;;5064327;28;20210;-81
2023/03/22 04:50:52;;;;;;;3.77;3.47;;;13.30;62.90;13.30;96169.00;;;;5072887;28;20219;-80
2023/03/22 04:53:19;;;;;;;3.73;3.20;;;13.30;62.90;13.20;96172.00;;;;5072178;28;20354;-80
2023/03/22 04:55:47;;;;;;;3.37;3.07;;;13.20;63.10;13.10;96158.00;;;;5064475;28;20200;-80
2023/03/22 04:58:16;;;;;;;3.60;3.30;;;13.10;62.90;13.10;96161.00;;;;5072555;28;20278;-80
2023/03/22 05:00:43;;;;;;;3.50;3.20;;;13.10;62.90;13.00;96159.00;;;;5069207;28;20213;-79
2023/03/22 05:03:10;;;;;;;3.83;3.50;;;13.00;63.10;12.90;96162.00;;;;5071645;28;20294;-80
2023/03/22 05:05:39;;;;;;;4.77;3.83;;;13.00;63.20;12.90;96171.00;;;;5052662;28;20307;-80
2023/03/22 05:08:07;;;;;;;3.87;3.57;;;12.90;63.20;12.80;96169.00;;;;5067527;28;20283;-79
2023/03/22 05:10:34;;;;;;;4.00;3.60;;;12.90;63.30;12.80;96172.00;;;;5071704;28;20594;-80
2023/03/22 05:13:02;;;;;;;4.00;3.70;;;12.80;63.50;12.70;96173.00;;;;5071945;28;20206;-79
2023/03/22 05:15:31;;;;;;;3.90;3.60;;;12.80;63.70;12.70;96181.00;;;;5054214;28;20282;-80
2023/03/22 05:17:58;;;;;;;4.40;4.00;;;12.70;63.80;12.70;96176.00;;;;5073099;28;20253;-78
2023/03/22 05:20:25;;;;;;;4.10;3.80;;;12.70;63.90;12.70;96179.00;;;;5054817;28;20657;-81
2023/03/22 05:22:55;;;;;;;3.97;3.67;;;12.70;64.00;12.60;96180.00;;;;5073338;28;20242;-78
2023/03/22 05:25:23;;;;;;;3.83;3.53;;;12.60;64.10;12.60;96177.00;;;;5066006;28;20302;-79
2023/03/22 05:27:53;;;;;;;5.20;4.07;;;12.60;64.20;12.60;96180.00;;;;5068917;28;20843;-80
2023/03/22 05:30:21;;;;;;;4.30;4.00;;;12.60;64.20;12.60;96181.00;;;;5078448;28;20212;-81
2023/03/22 05:32:49;;;;;;;4.13;3.83;;;12.50;64.10;12.60;96182.00;;;;5060426;28;20192;-81
2023/03/22 05:35:16;;;;;;;4.10;3.80;;;12.50;64.10;12.60;96178.00;;;;5072371;28;20932;-80
2023/03/22 05:37:43;;;;;;;4.27;3.97;;;12.50;64.20;12.60;96178.00;;;;5062616;28;20704;-80
2023/03/22 05:40:13;;;;;;;5.80;3.73;;;12.50;64.30;12.60;96181.00;;;;5078006;28;20348;-81
2023/03/22 05:42:41;;;;;;;3.43;3.23;;;12.40;64.40;12.60;96188.00;;;;5044563;28;20200;-81
2023/03/22 05:45:10;;;;;;;4.07;3.73;;;12.40;64.50;12.60;96188.00;;;;5065854;28;20571;-79
2023/03/22 05:47:38;;;;;;;3.80;3.40;;;12.40;64.70;12.60;96189.00;;;;5063465;28;20669;-81
2023/03/22 05:50:08;;;;;;;3.50;3.20;;;12.40;64.90;12.60;96192.00;;;;5074005;28;20302;-82
2023/03/22 05:52:36;;;;;;;3.70;3.43;;;12.40;65.00;12.70;96195.00;;;;5080027;28;20216;-81
2023/03/22 05:55:04;;;;;;;4.07;3.77;;;12.50;65.20;12.70;96186.00;;;;5077405;28;20593;-81
2023/03/22 05:57:33;;;;;;;3.93;3.63;;;12.50;65.30;12.70;96192.00;;;;5076479;28;20672;-80
2023/03/22 06:00:01;;;;;;;3.67;3.40;;;12.50;65.30;12.70;96185.00;;;;5066588;28;20295;-81
2023/03/22 06:02:28;;;;;;;3.87;3.47;;;12.50;65.40;12.70;96189.00;;;;5059404;28;20643;-80
2023/03/22 06:04:56;;;;;;;3.63;3.33;;;12.50;65.40;12.80;96190.00;;;;5067911;28;20295;-80
2023/03/22 06:07:24;;;;;;;4.10;3.40;;;12.50;65.40;12.80;96189.00;;;;5063358;28;20195;-81
2023/03/22 06:09:51;;;;;;;3.60;3.30;;;12.60;65.40;12.80;96188.00;;;;5070885;28;20685;-81
2023/03/22 06:12:23;;;;;;;3.80;3.47;;;12.60;65.40;12.80;96187.00;;;;5070605;28;20220;-80
2023/03/22 06:14:52;;;;;;;3.60;3.20;;;12.50;65.30;12.80;96187.00;;;;5071195;28;20259;-80
2023/03/22 06:17:20;;;;;;;3.77;3.47;;;12.60;65.40;12.80;96183.00;;;;5080376;28;20829;-81
2023/03/22 06:19:48;;;;;;;3.53;3.23;;;12.60;65.50;12.80;96185.00;;;;5062992;28;20807;-80
2023/03/22 06:22:15;;;;;;;3.87;3.57;;;12.60;65.60;12.80;96192.00;;;;5074587;28;20284;-80
2023/03/22 06:24:43;;;;;;;3.77;3.47;;;12.60;65.80;12.90;96183.00;;;;5067147;28;20221;-81
2023/03/22 06:27:11;;;;;;;4.73;4.33;;;12.70;65.90;12.90;96186.00;;;;5062510;28;20201;-80
2023/03/22 06:29:38;;;;;;;3.93;3.37;;;12.70;65.90;13.00;96187.00;;;;5061419;28;20211;-79
2023/03/22 06:32:08;;;;;;;3.73;3.43;;;12.80;66.00;13.00;96191.00;;;;5070514;28;20341;-81
2023/03/22 06:34:36;;;;;;;4.10;3.20;;;12.80;66.00;13.00;96201.00;;;;5080180;28;20232;-82
2023/03/22 06:37:03;;;;;;;5.40;3.30;;;12.80;65.90;13.10;96198.00;;;;5068718;28;20234;-81
2023/03/22 06:39:30;;;;;;;6.13;3.23;;;12.80;65.90;13.10;96195.00;;;;5081181;28;20258;-81
2023/03/22 06:41:58;;;;;;;3.27;2.97;;;12.90;65.90;13.20;96195.00;;;;5079552;28;20288;-80
2023/03/22 06:44:25;;;;;;;3.30;3.00;;;12.90;65.80;13.20;96191.00;;;;5074193;28;20223;-79
2023/03/22 06:46:53;;;;;;;3.90;3.27;;;13.00;65.80;13.30;96203.00;;;;5066637;28;20208;-81
2023/03/22 06:49:22;;;;;;;4.67;2.83;;;13.00;65.70;13.40;96206.00;;;;5064957;28;20220;-80
2023/03/22 06:51:50;;;;;;;2.97;2.77;;;13.10;65.60;13.40;96204.00;;;;5057225;28;20287;-80
2023/03/22 06:54:17;;;;;;;2.87;2.67;;;13.10;65.50;13.50;96206.00;;;;5063635;28;20215;-80
2023/03/22 06:56:45;;;;;;;2.73;2.53;;;13.20;65.60;13.50;96207.00;;;;5077192;28;20208;-81
2023/03/22 06:59:13;;;;;;;3.20;3.00;;;13.20;65.60;13.60;96212.00;;;;5060768;28;20732;-80
2023/03/22 07:01:40;;;;;;;3.00;2.80;;;13.30;65.60;13.70;96207.00;;;;5072754;28;20230;-79
2023/03/22 07:04:08;;;;;;;3.17;2.70;;;13.40;65.70;13.80;96208.00;;;;5073078;28;20571;-79
2023/03/22 07:06:36;;;;;;;3.00;2.80;;;13.40;65.40;13.80;96211.00;;;;5066890;28;20271;-80
2023/03/22 07:09:04;;;;;;;2.97;2.77;;;13.50;65.30;13.90;96215.00;;;;5076443;28;20222;-79
2023/03/22 07:11:32;;;;;;;2.70;2.50;;;13.60;65.20;14.00;96211.00;;;;5068846;28;20305;-80
2023/03/22 07:14:00;;;;;;;2.57;2.40;;;13.60;65.00;14.10;96212.00;;;;5060433;28;20292;-79
2023/03/22 07:16:28;;;;;;;2.57;2.37;;;13.70;64.90;14.10;96205.00;;;;5072723;28;20216;-79
2023/03/22 07:18:57;;;;;;;2.90;2.70;;;13.80;64.80;14.20;96209.00;;;;5072296;28;20269;-79
2023/03/22 07:21:25;;;;;;;3.33;2.60;;;13.90;64.60;14.30;96212.00;;;;5071054;28;20218;-80
2023/03/22 07:23:54;;;;;;;2.83;2.53;;;14.00;64.50;14.40;96218.00;;;;5068423;28;20291;-80
2023/03/22 07:26:22;;;;;;;2.77;2.57;;;14.10;64.50;14.50;96213.00;;;;5070936;28;20216;-79
2023/03/22 07:28:49;;;;;;;2.90;2.70;;;14.10;64.50;14.60;96213.00;;;;5071160;28;20216;-78
2023/03/22 07:31:16;;;;;;;2.63;2.43;;;14.20;64.30;14.70;96215.00;;;;5073912;28;20288;-79
2023/03/22 07:33:44;;;;;;;2.90;2.70;;;14.30;64.10;14.80;96210.00;;;;5070112;28;20219;-79
2023/03/22 07:36:12;;;;;;;3.27;3.07;;;14.40;63.90;14.90;96218.00;;;;5072132;28;20207;-81
2023/03/22 07:38:40;;;;;;;2.87;2.67;;;14.50;63.80;15.00;96219.00;;;;5073793;28;20200;-79
2023/03/22 07:41:09;;;;;;;2.93;2.73;;;14.60;63.60;15.10;96215.00;;;;5071456;28;20199;-81
2023/03/22 07:43:36;;;;;;;2.70;2.50;;;14.70;63.40;15.20;96204.00;;;;5066534;28;20667;-80
2023/03/22 07:46:04;;;;;;;2.47;2.27;;;14.80;63.30;15.30;96214.00;;;;5066576;28;20227;-80
2023/03/22 07:48:33;;;;;;;2.97;2.47;;;14.90;63.30;15.50;96217.00;;;;5069011;28;20643;-81
2023/03/22 07:51:01;;;;;;;2.67;2.47;;;15.00;64.00;15.60;96217.00;;;;5070049;28;20265;-80
2023/03/22 07:53:29;;;;;;;3.27;2.97;;;15.10;63.40;15.80;96219.00;;;;5072544;28;20203;-81
2023/03/22 07:55:56;;;;;;;3.93;2.90;;;15.30;63.20;15.90;96217.00;;;;5065988;28;20218;-80
2023/03/22 07:58:25;;;;;;;2.93;2.33;;;15.40;62.90;16.10;96218.00;;;;5073106;28;20629;-81
2023/03/22 08:00:52;;;;;;;2.70;2.50;;;15.50;62.90;16.20;96220.00;;;;5061674;28;20224;-79
2023/03/22 08:03:20;;;;;;;2.73;2.53;;;15.60;62.50;16.40;96221.00;;;;5071296;28;20282;-80
2023/03/22 08:05:48;;;;;;;2.83;2.63;;;15.80;62.50;16.60;96229.00;;;;5074990;28;20220;-80
2023/03/22 08:08:15;;;;;;;2.87;2.57;;;16.00;62.30;16.70;96228.00;;;;5063320;28;20200;-81
2023/03/22 08:10:43;;;;;;;2.80;2.60;;;16.10;62.10;16.90;96220.00;;;;5070684;28;20222;-79
2023/03/22 08:13:10;;;;;;;2.50;2.40;;;16.20;62.00;17.00;96219.00;;;;5069476;28;20261;-80
2023/03/22 08:15:39;;;;;;;2.30;2.20;;;16.40;62.50;17.20;96234.00;;;;5064875;28;20208;-80
2023/03/22 08:18:07;;;;;;;2.20;2.10;;;16.50;61.70;17.30;96228.00;;;;5067803;28;20645;-79
2023/03/22 08:20:34;;;;;;;2.37;2.20;;;16.60;61.20;17.50;96235.00;;;;5064218;28;20223;-80
2023/03/22 08:23:01;;;;;;;2.47;2.27;;;16.80;61.10;17.60;96233.00;;;;5081082;28;20219;-79
2023/03/22 08:25:31;;;;;;;2.30;2.00;;;16.90;60.70;17.80;96233.00;;;;5078277;28;20246;-79
2023/03/22 08:27:58;;;;;;;2.20;2.10;;;17.10;60.60;18.00;96237.00;;;;5059624;28;20226;-79
2023/03/22 08:30:25;;;;;;;2.70;2.50;;;17.20;60.50;18.10;96236.00;;;;5068837;28;20304;-79
2023/03/22 08:32:54;;;;;;;2.50;2.30;;;17.40;60.40;18.30;96233.00;;;;5068201;28;20210;-82
2023/03/22 08:35:22;;;;;;;2.50;2.30;;;17.50;59.80;18.50;96239.00;;;;5069709;28;20208;-79
2023/03/22 08:37:53;;;;;;;2.43;2.23;;;17.70;59.40;18.60;96235.00;;;;5066585;28;20200;-79
2023/03/22 08:40:21;;;;;;;2.33;2.10;;;17.80;59.30;18.80;96242.00;;;;5073587;28;20252;-79
2023/03/22 08:42:49;;;;;;;2.50;2.30;;;18.00;59.30;19.00;96240.00;;;;5055554;28;20239;-79
2023/03/22 08:45:17;;;;;;;1.90;1.80;;;18.10;59.10;19.10;96238.00;;;;5069910;28;20637;-78
2023/03/22 08:47:45;;;;;;;1.80;1.70;;;18.30;58.90;19.40;96237.00;;;;5069968;28;20200;-80
2023/03/22 08:50:14;;;;;;;2.17;1.97;;;18.50;58.80;19.50;96241.00;;;;5064273;28;20212;-79
2023/03/22 08:52:41;;;;;;;2.50;2.33;;;18.60;58.50;19.70;96236.00;;;;5062598;28;20568;-80
2023/03/22 08:55:10;;;;;;;1.83;1.73;;;18.80;58.10;19.90;96237.00;;;;5076403;28;20353;-79
2023/03/22 08:57:37;;;;;;;2.30;2.10;;;19.00;58.00;20.10;96237.00;;;;5056312;28;20191;-78
2023/03/22 09:00:09;;;;;;;1.90;1.80;;;19.10;57.60;20.30;96238.00;;;;5075453;28;20220;-79
2023/03/22 09:02:37;;;;;;;2.50;2.30;;;19.30;57.50;20.50;96234.00;;;;5070797;28;20220;-80
2023/03/22 09:05:05;;;;;;;2.17;2.07;;;19.40;57.40;20.70;96232.00;;;;5078217;28;20196;-80
2023/03/22 09:07:34;;;;;;;2.43;2.20;;;19.60;57.30;20.90;96238.00;;;;5081124;28;20188;-81
2023/03/22 09:10:01;;;;;;;2.33;2.13;;;19.70;56.90;21.10;96237.00;;;;5092626;28;20216;-80
2023/03/22 09:12:29;;;;;;;2.43;2.23;;;19.90;56.80;21.30;96243.00;;;;5090068;28;20211;-81
2023/03/22 09:14:57;;;;;;;2.53;2.40;;;20.10;56.80;21.50;96241.00;;;;5095842;28;20202;-79
2023/03/22 09:17:24;;;;;;;2.20;2.10;;;20.30;56.20;21.60;96234.00;;;;5093809;28;20176;-78
2023/03/22 09:19:52;;;;;;;1.73;1.63;;;20.40;56.10;21.80;96220.00;;;;5085751;28;20241;-79
2023/03/22 09:22:19;;;;;;;2.33;1.70;;;20.60;56.00;22.00;96237.00;;;;5074783;28;20299;-79
2023/03/22 09:24:48;;;;;;;2.33;2.10;;;20.80;55.90;22.20;96233.00;;;;5070967;28;20628;-78
2023/03/22 09:27:15;;;;;;;2.37;2.03;;;21.00;55.50;22.40;96228.00;;;;5073846;28;20216;-78
2023/03/22 09:29:43;;;;;;;1.97;1.87;;;21.20;55.40;22.60;96232.00;;;;5064751;28;20255;-80
2023/03/22 09:32:11;;;;;;;2.23;2.03;;;21.30;55.20;22.80;96228.00;;;;5066616;28;20201;-80
2023/03/22 09:34:38;;;;;;;2.27;2.07;;;21.50;54.70;22.90;96228.00;;;;5073791;28;20220;-80
2023/03/22 09:37:05;;;;;;;2.60;2.40;;;21.70;54.40;23.10;96219.00;;;;5074992;28;20741;-81
2023/03/22 09:39:37;;;;;;;3.30;2.60;;;21.80;53.60;23.20;96211.00;;;;5072233;28;20303;-81
2023/03/22 09:42:15;;;;;;;2.40;2.13;;;22.00;53.40;23.40;96217.00;;;;5074148;28;20196;-81
2023/03/22 09:44:45;;;;;;;3.73;2.47;;;22.10;52.70;23.50;96205.00;;;;5057593;28;20196;-81
2023/03/22 09:47:20;;;;;;;2.33;2.07;;;22.30;52.70;23.70;96205.00;;;;5072892;28;20307;-81
2023/03/22 09:49:55;;;;;;;2.27;2.07;;;22.50;52.70;23.90;96201.00;;;;5073143;28;20227;-79
2023/03/22 09:52:22;;;;;;;2.03;1.83;;;22.70;52.30;24.20;96210.00;;;;5070242;28;20233;-79
2023/03/22 09:54:50;;;;;;;1.90;1.80;;;23.00;52.10;24.40;96200.00;;;;5069957;28;20290;-80
2023/03/22 09:57:28;;;;;;;1.67;1.57;;;23.30;51.80;24.70;96204.00;;;;5055862;28;20197;-79
2023/03/22 10:00:11;;;;;;;1.57;1.47;;;23.50;51.20;24.90;96199.00;;;;5073480;28;20254;-80
2023/03/22 10:02:54;;;;;;;1.50;1.40;;;23.80;51.20;25.20;96198.00;;;;5062310;28;20657;-79
2023/03/22 10:05:32;;;;;;;1.40;1.30;;;24.10;50.90;25.50;96190.00;;;;5061426;28;20615;-79
2023/03/22 10:08:30;;;;;;;1.73;1.33;;;24.40;50.20;25.70;96200.00;;;;5062341;28;20203;-79
2023/03/22 10:11:00;;;;;;;1.27;0.90;;;24.70;49.00;25.90;96199.00;;;;5072500;28;20716;-79
2023/03/22 10:13:40;;;;;;;2.33;1.00;;;24.90;49.70;26.10;96191.00;;;;5070573;28;20253;-80
2023/03/22 10:16:16;;;;;;;1.10;0.90;;;25.20;48.30;26.30;96190.00;;;;5067009;28;20230;-79
2023/03/22 10:18:51;;;;;;;1.37;1.23;;;25.40;48.20;26.40;96189.00;;;;5076861;28;20652;-80
2023/03/22 10:21:21;;;;;;;1.87;1.20;;;25.60;47.40;26.40;96192.00;;;;5078613;28;20279;-80
2023/03/22 10:23:56;;;;;;;0.70;0.70;;;25.70;47.30;26.40;96195.00;;;;5079926;28;20177;-80
2023/03/22 10:26:30;;;;;;;0.93;0.93;;;25.80;46.50;26.40;96190.00;;;;5074896;28;20251;-83
2023/03/22 10:29:03;;;;;;;0.80;0.80;;;25.90;46.00;26.40;96190.00;;;;5070321;28;20819;-80
2023/03/22 10:31:32;;;;;;;0.90;0.90;;;26.00;45.70;26.40;96193.00;;;;5076976;28;20211;-81
2023/03/22 10:34:05;;;;;;;1.60;1.10;;;26.00;45.70;26.40;96189.00;;;;5077102;28;20282;-80
2023/03/22 10:36:38;;;;;;;0.93;0.93;;;26.10;45.80;26.40;96194.00;;;;5055303;28;20261;-79
2023/03/22 10:39:17;;;;;;;1.20;1.10;;;26.10;45.30;26.40;96191.00;;;;5071289;28;20207;-82
2023/03/22 10:41:47;;;;;;;1.10;1.10;;;26.20;45.10;26.50;96183.00;;;;5066584;28;21113;-81
2023/03/22 10:44:19;;;;;;;1.27;1.17;;;26.20;45.00;26.40;96184.00;;;;5075050;28;20267;-80
2023/03/22 10:46:49;;;;;;;1.43;0.97;;;26.20;43.70;26.30;96187.00;;;;5074495;28;20306;-80
2023/03/22 10:49:26;;;;;;;0.90;0.90;;;26.20;43.80;26.30;96180.00;;;;5075828;28;20220;-81
2023/03/22 10:52:00;;;;;;;1.20;1.10;;;26.20;43.50;26.20;96183.00;;;;5052471;28;20204;-80
2023/03/22 10:54:28;;;;;;;1.73;1.00;;;26.20;43.70;26.20;96186.00;;;;5075686;28;20224;-80
2023/03/22 10:56:56;;;;;;;1.20;1.10;;;26.10;43.40;26.10;96180.00;;;;5062483;28;20637;-80
2023/03/22 10:59:46;;;;;;;0.80;0.80;;;26.10;43.30;26.00;96184.00;;;;5066379;28;20228;-81
2023/03/22 11:02:26;;;;;;;1.87;1.23;;;26.00;42.60;25.80;96182.00;;;;5068727;28;20206;-80
2023/03/22 11:04:56;;;;;;;1.00;1.00;;;25.90;41.90;25.60;96191.00;;;;5068952;28;20200;-79
2023/03/22 11:07:35;;;;;;;1.10;1.10;;;25.70;42.50;25.40;96178.00;;;;5063815;28;20753;-79
2023/03/22 11:10:27;;;;;;;1.30;1.20;;;25.60;42.10;25.20;96172.00;;;;5066319;28;20767;-80
2023/03/22 11:13:12;;;;;;;1.20;1.10;;;25.40;41.70;25.00;96174.00;;;;5068932;28;20191;-80